Old Salem, Texas
Current Conditions -  °F | °C
As of 10:15 PM on Thursday 27 Nov 2014 (Local Time) from K5R8 Reporting Station
Clear Clear  
Wind Chill: 45°   Ceiling: Unl
Heat Index: 45°   Visibility: 10mi
Dew Point: 35°   Wind: 0mph
Humidity: 69%   Direction: NA
Pressure: 30.44"   Gusts: NA
Location:  30.5194°N, 93.8093°W
Report Text: K5R8 280415Z AUTO 00000KT 10SM CLR 07/02 A3044 RMK AO2 T00700016
Loading
Personal Weather Stations






























Interactive Weather Map New forecast layout! Learn more

10-Day Weather Forecast

Advertisements
Track Severe Weather on mobile